LFBY/XDA METAR and TAF weather

Enter ICAO airport designator
Station Type Date Time Source
LFBY METAR 2018/12/15 02:30 UTC NOAA

LFBY 150230Z AUTO 16003KT 9999 // ////// 08/07 Q1021


Station Type Date Time Source
LFBY Decoded METAR 2018/12/15 02:30 UTC NOAA

Dax, France (LFBY) 43-41N 001-04W 32M
Dec 14, 2018 - 09:30 PM EST / 2018.12.15 0230 UTC
Wind: from the SSE (160 degrees) at 3 MPH (3 KT):0
Visibility: greater than 7 mile(s):0
Temperature: 46 F (8 C)
Dew Point: 44 F (7 C)
Relative Humidity: 93%
Pressure (altimeter): 30.15 in. Hg (1021 hPa)
ob: LFBY 150230Z AUTO 16003KT 9999 // ////// 08/07 Q1021
cycle: 2

Station Type Date Time Source
LFBY TAF UTC NOAA

Error!


Example: see airport list